Time;durP1;ratioP1;P1;durP2;ratioP2;P2;SDS_P1;SDS_P2;PMS_P1;PMS_P2;Temp;Humidity;BMP_temperature;BMP_pressure;BME280_temperature;BME280_humidity;BME280_pressure;Samples;Min_cycle;Max_cycle;Signal;HPM_P1;HPM_P2
2021/08/15 00:01:23;;;;;;;23.10;15.07;;;16.70;99.90;;;;;;5013605;28;20899;-71
2021/08/15 00:03:49;;;;;;;19.20;13.50;;;16.70;99.90;;;;;;5013447;28;20162;-71
2021/08/15 00:06:15;;;;;;;22.13;14.53;;;16.70;99.90;;;;;;5013589;28;20188;-71
2021/08/15 00:08:41;;;;;;;19.10;13.53;;;16.70;99.90;;;;;;5031759;28;20494;-71
2021/08/15 00:11:06;;;;;;;20.10;14.10;;;16.70;99.90;;;;;;5032845;28;20827;-71
2021/08/15 00:13:32;;;;;;;21.53;14.87;;;16.70;99.90;;;;;;5032857;28;20280;-71
2021/08/15 00:15:58;;;;;;;20.90;14.10;;;16.60;99.90;;;;;;5033195;28;20524;-71
2021/08/15 00:18:23;;;;;;;20.30;14.17;;;16.60;99.90;;;;;;5032794;28;20160;-71
2021/08/15 00:20:49;;;;;;;21.47;14.30;;;16.60;99.90;;;;;;5033040;28;20208;-71
2021/08/15 00:23:14;;;;;;;21.30;14.10;;;16.60;99.90;;;;;;5032396;28;20653;-71
2021/08/15 00:25:40;;;;;;;20.00;15.33;;;16.60;99.90;;;;;;5028074;28;20168;-71
2021/08/15 00:28:06;;;;;;;24.10;15.13;;;16.60;99.90;;;;;;5032770;28;20638;-71
2021/08/15 00:30:31;;;;;;;19.90;13.90;;;16.60;99.90;;;;;;5033213;28;20208;-71
2021/08/15 00:32:57;;;;;;;22.73;14.93;;;16.60;99.90;;;;;;5032456;28;20553;-71
2021/08/15 00:35:22;;;;;;;19.10;15.30;;;16.60;99.90;;;;;;5032885;28;20172;-71
2021/08/15 00:37:48;;;;;;;18.97;13.47;;;16.60;99.90;;;;;;5032571;28;20192;-71
2021/08/15 00:40:13;;;;;;;16.97;13.00;;;16.50;99.90;;;;;;5032325;28;20513;-71
2021/08/15 00:42:39;;;;;;;17.20;13.27;;;16.50;99.90;;;;;;5030867;28;20168;-71
2021/08/15 00:45:05;;;;;;;21.20;12.70;;;16.50;99.90;;;;;;5032946;28;20219;-71
2021/08/15 00:47:32;;;;;;;19.73;14.23;;;16.50;99.90;;;;;;5032482;28;20199;-71
2021/08/15 00:49:59;;;;;;;22.53;14.07;;;16.50;99.90;;;;;;5032054;28;20384;-71
2021/08/15 00:52:25;;;;;;;17.70;12.60;;;16.40;99.90;;;;;;5032144;28;20435;-71
2021/08/15 00:54:51;;;;;;;16.00;12.63;;;16.40;99.90;;;;;;5032257;28;20803;-71
2021/08/15 00:57:16;;;;;;;20.37;11.47;;;16.40;99.90;;;;;;5032008;28;20244;-71
2021/08/15 00:59:42;;;;;;;21.13;12.60;;;16.40;99.90;;;;;;5013485;28;20292;-71
2021/08/15 01:02:08;;;;;;;17.50;12.70;;;16.40;99.90;;;;;;5012458;28;21040;-71
2021/08/15 01:04:37;;;;;;;19.30;12.50;;;16.30;99.90;;;;;;5012767;28;20231;-71
2021/08/15 01:07:04;;;;;;;18.20;14.20;;;16.30;99.90;;;;;;5012582;28;20638;-71
2021/08/15 01:09:30;;;;;;;15.17;12.00;;;16.30;99.90;;;;;;5012527;28;20397;-71
2021/08/15 01:11:56;;;;;;;15.17;11.93;;;16.30;99.90;;;;;;5012371;28;20770;-71
2021/08/15 01:14:21;;;;;;;17.80;13.10;;;16.30;99.90;;;;;;5013041;28;20559;-71
2021/08/15 01:16:47;;;;;;;20.80;15.03;;;16.30;99.90;;;;;;5012970;28;20616;-71
2021/08/15 01:19:14;;;;;;;23.60;14.30;;;16.20;99.90;;;;;;5012338;28;20161;-71
2021/08/15 01:21:41;;;;;;;18.30;13.17;;;16.20;99.90;;;;;;5012350;28;20525;-71
2021/08/15 01:24:07;;;;;;;21.60;12.43;;;16.20;99.90;;;;;;5016048;28;20407;-71
2021/08/15 01:26:33;;;;;;;19.43;12.90;;;16.20;99.90;;;;;;5032140;28;20399;-71
2021/08/15 01:28:58;;;;;;;16.50;12.57;;;16.20;99.90;;;;;;5032090;28;20161;-71
2021/08/15 01:31:25;;;;;;;15.40;11.43;;;16.20;99.90;;;;;;5031018;28;20177;-71
2021/08/15 01:33:51;;;;;;;14.47;12.37;;;16.20;99.90;;;;;;5012526;28;20201;-71
2021/08/15 01:36:19;;;;;;;15.37;11.00;;;16.10;99.90;;;;;;5012227;28;20461;-71
2021/08/15 01:38:46;;;;;;;14.03;10.90;;;16.10;99.90;;;;;;5012179;28;20389;-71
2021/08/15 01:41:12;;;;;;;16.50;11.30;;;16.10;99.90;;;;;;5012297;28;20389;-71
2021/08/15 01:43:57;;;;;;;18.53;13.20;;;16.10;99.90;;;;;;5012385;28;20400;-71
2021/08/15 01:46:26;;;;;;;17.70;13.00;;;16.10;99.90;;;;;;5012081;28;20405;-71
2021/08/15 01:48:52;;;;;;;19.47;12.17;;;16.00;99.90;;;;;;5013039;28;20416;-71
2021/08/15 01:51:19;;;;;;;17.00;12.57;;;16.00;99.90;;;;;;5011969;28;20542;-72
2021/08/15 01:53:45;;;;;;;20.20;13.30;;;16.00;99.90;;;;;;5011981;28;20686;-71
2021/08/15 01:56:11;;;;;;;20.33;12.90;;;16.00;99.90;;;;;;5012525;28;20925;-71
2021/08/15 01:58:36;;;;;;;17.97;12.17;;;16.00;99.90;;;;;;5012442;28;20432;-71
2021/08/15 02:01:03;;;;;;;19.20;13.97;;;16.00;99.90;;;;;;5013603;28;20186;-71
2021/08/15 02:03:28;;;;;;;19.03;13.60;;;15.90;99.90;;;;;;5015624;28;20157;-71
2021/08/15 02:05:54;;;;;;;14.67;12.03;;;15.90;99.90;;;;;;5016585;28;20482;-71
2021/08/15 02:08:19;;;;;;;16.73;12.27;;;15.90;99.90;;;;;;5015544;28;20157;-71
2021/08/15 02:10:45;;;;;;;17.43;11.80;;;15.90;99.90;;;;;;5015632;28;20208;-71
2021/08/15 02:13:11;;;;;;;20.37;13.10;;;15.90;99.90;;;;;;5015518;28;20557;-71
2021/08/15 02:15:36;;;;;;;14.47;12.03;;;15.90;99.90;;;;;;5015857;28;20237;-72
2021/08/15 02:18:02;;;;;;;14.43;12.70;;;15.90;99.90;;;;;;5015414;28;20193;-72
2021/08/15 02:20:30;;;;;;;17.07;11.37;;;15.80;99.90;;;;;;5015274;28;20146;-72
2021/08/15 02:22:56;;;;;;;17.47;12.70;;;15.80;99.90;;;;;;5017431;28;20189;-72
2021/08/15 02:25:22;;;;;;;21.20;12.87;;;15.80;99.90;;;;;;5021285;28;20802;-72
2021/08/15 02:27:48;;;;;;;14.60;11.40;;;15.80;99.90;;;;;;5015228;28;20400;-72
2021/08/15 02:30:17;;;;;;;18.77;12.50;;;15.80;99.90;;;;;;5015112;28;20389;-72
2021/08/15 02:32:43;;;;;;;17.17;12.00;;;15.80;99.90;;;;;;5015076;28;20404;-72
2021/08/15 02:35:10;;;;;;;19.03;13.00;;;15.80;99.90;;;;;;5014928;28;20417;-72
2021/08/15 02:37:37;;;;;;;16.07;11.57;;;15.80;99.90;;;;;;5014966;28;20420;-72
2021/08/15 02:40:04;;;;;;;23.60;13.20;;;15.80;99.90;;;;;;5016049;28;20553;-72
2021/08/15 02:42:32;;;;;;;21.10;14.63;;;15.80;99.90;;;;;;5014887;28;20987;-72
2021/08/15 02:44:59;;;;;;;16.07;11.60;;;15.70;99.90;;;;;;5015062;28;21196;-72
2021/08/15 02:47:25;;;;;;;18.10;12.37;;;15.70;99.90;;;;;;5014684;28;20396;-72
2021/08/15 02:49:50;;;;;;;15.57;11.10;;;15.70;99.90;;;;;;5027763;28;20485;-72
2021/08/15 02:52:16;;;;;;;16.13;12.17;;;15.70;99.90;;;;;;5034343;28;20159;-72
2021/08/15 02:54:42;;;;;;;16.03;11.47;;;15.60;99.90;;;;;;5034490;28;20557;-72
2021/08/15 02:57:08;;;;;;;22.00;13.63;;;15.60;99.90;;;;;;5028549;28;20932;-72
2021/08/15 02:59:39;;;;;;;18.83;13.30;;;15.60;99.90;;;;;;5014572;28;20431;-71
2021/08/15 03:02:08;;;;;;;23.53;14.10;;;15.60;99.90;;;;;;5014501;28;20381;-71
2021/08/15 03:04:33;;;;;;;19.70;14.50;;;15.60;99.90;;;;;;5014349;28;20404;-71
2021/08/15 03:06:59;;;;;;;19.70;13.47;;;15.60;99.90;;;;;;5015527;28;20397;-71
2021/08/15 03:09:25;;;;;;;19.03;11.47;;;15.60;99.90;;;;;;5014500;28;20697;-71
2021/08/15 03:11:50;;;;;;;15.97;12.73;;;15.60;99.90;;;;;;5014531;28;20166;-71
2021/08/15 03:14:16;;;;;;;14.30;12.30;;;15.60;99.90;;;;;;5015289;28;20216;-71
2021/08/15 03:16:41;;;;;;;18.70;13.07;;;15.60;99.90;;;;;;5014260;28;20166;-71
2021/08/15 03:19:07;;;;;;;17.70;12.63;;;15.60;99.90;;;;;;5014190;28;20166;-71
2021/08/15 03:21:34;;;;;;;16.63;12.73;;;15.60;99.90;;;;;;5014103;28;20252;-71
2021/08/15 03:24:02;;;;;;;18.63;12.70;;;15.50;99.90;;;;;;5025112;28;20535;-71
2021/08/15 03:26:27;;;;;;;16.80;13.00;;;15.50;99.90;;;;;;5033963;28;20399;-71
2021/08/15 03:28:53;;;;;;;20.37;14.40;;;15.50;99.90;;;;;;5033757;28;20773;-71
2021/08/15 03:31:19;;;;;;;23.07;13.30;;;15.50;99.90;;;;;;5025700;28;20185;-71
2021/08/15 03:33:44;;;;;;;19.70;14.30;;;15.50;99.90;;;;;;5013907;28;20197;-71
2021/08/15 03:36:10;;;;;;;19.00;13.53;;;15.50;99.90;;;;;;5014176;28;20162;-71
2021/08/15 03:38:36;;;;;;;19.27;14.97;;;15.50;99.90;;;;;;5013923;28;20164;-71
2021/08/15 03:41:01;;;;;;;24.37;14.90;;;15.50;99.90;;;;;;5013764;28;20168;-71
2021/08/15 03:43:27;;;;;;;16.60;13.10;;;15.50;99.90;;;;;;5013513;28;20196;-71
2021/08/15 03:45:52;;;;;;;21.13;13.80;;;15.40;99.90;;;;;;5013753;28;20170;-71
2021/08/15 03:48:18;;;;;;;17.13;14.43;;;15.40;99.90;;;;;;5014469;28;20181;-71
2021/08/15 03:50:43;;;;;;;21.70;13.10;;;15.40;99.90;;;;;;5013592;28;20566;-71
2021/08/15 03:53:09;;;;;;;19.03;12.70;;;15.40;99.90;;;;;;5013396;28;20197;-71
2021/08/15 03:55:34;;;;;;;17.50;13.03;;;15.40;99.90;;;;;;5013564;28;20183;-71
2021/08/15 03:58:00;;;;;;;17.10;13.47;;;15.40;99.90;;;;;;5013413;28;20162;-71
2021/08/15 04:00:25;;;;;;;17.67;14.10;;;15.40;99.90;;;;;;5013357;28;20193;-71
2021/08/15 04:02:51;;;;;;;19.20;13.93;;;15.30;99.90;;;;;;5013391;28;20162;-71
2021/08/15 04:05:16;;;;;;;18.47;12.47;;;15.40;99.90;;;;;;5014447;28;20531;-71
2021/08/15 04:07:42;;;;;;;20.20;13.00;;;15.40;99.90;;;;;;5013658;28;20173;-71
2021/08/15 04:10:09;;;;;;;18.43;13.17;;;15.30;99.90;;;;;;5013464;28;20619;-71
2021/08/15 04:12:35;;;;;;;20.33;14.20;;;15.30;99.90;;;;;;5013209;28;20492;-71
2021/08/15 04:15:01;;;;;;;18.47;13.30;;;15.30;99.90;;;;;;5013287;28;20459;-71
2021/08/15 04:17:26;;;;;;;18.20;13.10;;;15.30;99.90;;;;;;5013252;28;20890;-71
2021/08/15 04:19:52;;;;;;;18.17;13.17;;;15.30;99.90;;;;;;5013004;28;20186;-71
2021/08/15 04:22:18;;;;;;;16.57;13.50;;;15.40;99.90;;;;;;5018374;28;20207;-71
2021/08/15 04:24:43;;;;;;;25.90;14.03;;;15.30;99.90;;;;;;5015484;28;20643;-71
2021/08/15 04:27:09;;;;;;;20.40;15.40;;;15.30;99.90;;;;;;5013098;28;20157;-71
2021/08/15 04:29:35;;;;;;;17.00;13.23;;;15.30;99.90;;;;;;5013354;28;20158;-71
2021/08/15 04:32:02;;;;;;;17.67;14.50;;;15.30;99.90;;;;;;5012784;28;20162;-71
2021/08/15 04:34:29;;;;;;;18.27;14.47;;;15.40;99.90;;;;;;5012985;28;20455;-71
2021/08/15 04:36:54;;;;;;;25.73;14.23;;;15.30;99.90;;;;;;5013136;28;20407;-71
2021/08/15 04:39:20;;;;;;;23.20;15.20;;;15.40;99.90;;;;;;5014201;28;20909;-71
2021/08/15 04:41:46;;;;;;;18.23;13.03;;;15.30;99.90;;;;;;5012777;28;20154;-71
2021/08/15 04:44:11;;;;;;;18.80;12.97;;;15.40;99.90;;;;;;5013194;28;20165;-71
2021/08/15 04:46:37;;;;;;;21.40;14.57;;;15.40;99.90;;;;;;5012800;28;20408;-71
2021/08/15 04:49:02;;;;;;;18.03;13.97;;;15.40;99.90;;;;;;5027370;28;20184;-71
2021/08/15 04:51:28;;;;;;;18.43;13.63;;;15.40;99.90;;;;;;5032716;28;20594;-71
2021/08/15 04:53:54;;;;;;;19.03;14.00;;;15.50;99.90;;;;;;5032263;28;20201;-71
2021/08/15 04:56:19;;;;;;;20.97;14.07;;;15.50;99.90;;;;;;5024523;28;20192;-71
2021/08/15 04:58:45;;;;;;;18.43;13.83;;;15.50;99.90;;;;;;5012655;28;20192;-71
2021/08/15 05:01:10;;;;;;;19.83;14.03;;;15.50;99.90;;;;;;5012690;28;20577;-71
2021/08/15 05:03:36;;;;;;;21.17;14.67;;;15.50;99.90;;;;;;5012750;28;20158;-71
2021/08/15 05:06:02;;;;;;;20.30;13.33;;;15.60;99.90;;;;;;5012909;28;20242;-71
2021/08/15 05:08:28;;;;;;;18.57;13.83;;;15.60;99.90;;;;;;5012632;28;20154;-71
2021/08/15 05:10:54;;;;;;;19.67;14.47;;;15.60;99.90;;;;;;5012505;28;20936;-71
2021/08/15 05:13:20;;;;;;;22.23;12.83;;;15.70;99.90;;;;;;5013936;28;20464;-71
2021/08/15 05:15:46;;;;;;;21.77;13.40;;;15.70;99.90;;;;;;5012624;28;20158;-71
2021/08/15 05:18:15;;;;;;;18.73;14.07;;;15.70;99.90;;;;;;5012593;28;20415;-71
2021/08/15 05:20:40;;;;;;;20.03;11.57;;;15.80;99.90;;;;;;5013091;28;20212;-71
2021/08/15 05:23:06;;;;;;;19.40;13.50;;;15.90;99.90;;;;;;5024007;28;20412;-71
2021/08/15 05:25:32;;;;;;;16.77;11.97;;;15.90;99.90;;;;;;5032232;28;20157;-71
2021/08/15 05:27:57;;;;;;;17.00;12.67;;;16.00;99.90;;;;;;5032192;28;20227;-71
2021/08/15 05:30:24;;;;;;;19.60;12.97;;;16.00;99.90;;;;;;5023632;28;20553;-71
2021/08/15 05:32:49;;;;;;;21.30;13.20;;;16.10;99.90;;;;;;5012151;28;20165;-71
2021/08/15 05:35:15;;;;;;;18.40;13.90;;;16.10;99.90;;;;;;5013390;28;20385;-71
2021/08/15 05:37:41;;;;;;;16.67;12.80;;;16.20;99.90;;;;;;5016270;28;20588;-71
2021/08/15 05:40:08;;;;;;;17.30;13.07;;;16.20;99.90;;;;;;5016189;28;20207;-71
2021/08/15 05:42:33;;;;;;;16.33;12.80;;;16.30;99.90;;;;;;5016121;28;20388;-71
2021/08/15 05:44:59;;;;;;;16.30;12.80;;;16.30;99.90;;;;;;5016213;28;20407;-71
2021/08/15 05:47:24;;;;;;;17.73;13.00;;;16.40;99.90;;;;;;5018538;28;20188;-71
2021/08/15 05:49:51;;;;;;;18.60;12.57;;;16.50;99.90;;;;;;5036226;28;20172;-71
2021/08/15 05:52:17;;;;;;;18.93;12.23;;;16.50;99.90;;;;;;5035821;28;20201;-71
2021/08/15 05:54:42;;;;;;;16.50;12.03;;;16.60;99.90;;;;;;5035547;28;20471;-71
2021/08/15 05:57:08;;;;;;;22.67;12.33;;;16.60;99.90;;;;;;5035736;28;20157;-71
2021/08/15 05:59:34;;;;;;;20.67;13.07;;;16.70;99.90;;;;;;5035442;28;20195;-71
2021/08/15 06:02:01;;;;;;;16.17;11.67;;;16.80;99.90;;;;;;5035879;28;20192;-71
2021/08/15 06:04:26;;;;;;;13.57;10.77;;;16.80;99.90;;;;;;5026870;28;20424;-71
2021/08/15 06:06:52;;;;;;;18.10;13.00;;;16.80;99.90;;;;;;5015526;28;20408;-71
2021/08/15 06:09:18;;;;;;;17.10;11.33;;;17.00;99.90;;;;;;5015753;28;20212;-71
2021/08/15 06:11:43;;;;;;;16.73;12.10;;;17.00;99.90;;;;;;5015763;28;20666;-71
2021/08/15 06:14:09;;;;;;;14.60;12.27;;;17.10;99.90;;;;;;5015253;28;20566;-71
2021/08/15 06:16:34;;;;;;;21.03;12.23;;;17.20;99.90;;;;;;5015618;28;20552;-71
2021/08/15 06:19:00;;;;;;;16.03;12.77;;;17.30;99.90;;;;;;5015784;28;20261;-71
2021/08/15 06:21:25;;;;;;;15.97;12.00;;;17.40;99.90;;;;;;5016540;28;20179;-71
2021/08/15 06:23:51;;;;;;;16.47;11.13;;;17.40;99.90;;;;;;5033538;28;20180;-71
2021/08/15 06:26:17;;;;;;;16.73;12.20;;;17.40;99.90;;;;;;5035023;28;20153;-71
2021/08/15 06:28:42;;;;;;;13.77;10.77;;;17.40;99.90;;;;;;5035046;28;20172;-71
2021/08/15 06:31:08;;;;;;;15.90;10.60;;;17.50;99.90;;;;;;5035039;28;20396;-71
2021/08/15 06:33:34;;;;;;;13.60;10.60;;;17.60;99.90;;;;;;5035570;28;20665;-71
2021/08/15 06:35:59;;;;;;;15.80;10.87;;;17.70;99.90;;;;;;5034977;28;20157;-71
2021/08/15 06:38:25;;;;;;;16.10;12.43;;;17.80;99.90;;;;;;5026350;28;20279;-71
2021/08/15 06:40:50;;;;;;;11.53;9.60;;;18.00;99.90;;;;;;5015119;28;20158;-71
2021/08/15 06:43:17;;;;;;;15.97;11.60;;;18.10;99.90;;;;;;5015156;28;20168;-71
2021/08/15 06:45:43;;;;;;;17.97;11.20;;;18.20;99.90;;;;;;5014847;28;20189;-71
2021/08/15 06:48:09;;;;;;;12.53;9.00;;;18.30;99.90;;;;;;5014992;28;20422;-71
2021/08/15 06:50:35;;;;;;;11.67;9.40;;;18.30;99.90;;;;;;5033773;28;20415;-71
2021/08/15 06:53:00;;;;;;;13.00;8.50;;;18.50;99.90;;;;;;5034442;28;20707;-71
2021/08/15 06:55:26;;;;;;;9.67;7.10;;;18.50;99.90;;;;;;5033036;28;20231;-71
2021/08/15 06:57:52;;;;;;;9.87;7.07;;;18.60;99.90;;;;;;5034758;28;20165;-71
2021/08/15 07:00:17;;;;;;;7.17;6.37;;;18.70;99.90;;;;;;5034681;28;20193;-71
2021/08/15 07:02:46;;;;;;;12.40;6.67;;;18.80;99.90;;;;;;5034742;28;20163;-71
2021/08/15 07:05:11;;;;;;;10.13;6.93;;;18.90;99.90;;;;;;5034487;28;20467;-71
2021/08/15 07:07:37;;;;;;;8.73;5.87;;;19.10;99.90;;;;;;5034594;28;20487;-71
2021/08/15 07:10:04;;;;;;;5.50;4.33;;;19.20;99.90;;;;;;5034240;28;20161;-71
2021/08/15 07:12:30;;;;;;;6.90;4.07;;;19.40;99.90;;;;;;5032603;28;20173;-71
2021/08/15 07:14:55;;;;;;;5.97;4.60;;;19.60;99.90;;;;;;5034374;28;20955;-71
2021/08/15 07:17:21;;;;;;;6.93;4.03;;;19.70;99.90;;;;;;5034415;28;20161;-71
2021/08/15 07:19:47;;;;;;;5.77;4.37;;;19.90;99.90;;;;;;5034305;28;20651;-71
2021/08/15 07:22:12;;;;;;;5.03;2.90;;;20.00;99.90;;;;;;5029469;28;20164;-71
2021/08/15 07:24:38;;;;;;;5.37;3.43;;;20.20;99.90;;;;;;5014224;28;20607;-71
2021/08/15 07:27:03;;;;;;;5.23;3.20;;;20.40;99.90;;;;;;5014291;28;20193;-71
2021/08/15 07:29:29;;;;;;;4.87;3.07;;;20.60;99.90;;;;;;5015451;28;20740;-71
2021/08/15 07:31:54;;;;;;;3.60;2.93;;;20.80;99.90;;;;;;5014348;28;20662;-71
2021/08/15 07:34:20;;;;;;;3.97;3.17;;;21.00;99.90;;;;;;5014062;28;20572;-71
2021/08/15 07:36:46;;;;;;;8.30;3.00;;;21.00;99.90;;;;;;5014041;28;20164;-71
2021/08/15 07:39:13;;;;;;;3.40;2.80;;;21.10;99.90;;;;;;5014160;28;20165;-71
2021/08/15 07:41:38;;;;;;;7.73;3.10;;;21.30;99.90;;;;;;5014061;28;20541;-71
2021/08/15 07:44:04;;;;;;;4.00;2.60;;;21.40;99.90;;;;;;5014140;28;20503;-71
2021/08/15 07:46:30;;;;;;;3.10;2.33;;;21.60;99.90;;;;;;5018714;28;20180;-71
2021/08/15 07:48:57;;;;;;;3.37;2.63;;;21.90;99.90;;;;;;5013755;28;20408;-71
2021/08/15 07:51:23;;;;;;;3.80;2.37;;;22.60;99.90;;;;;;5023803;28;20177;-71
2021/08/15 07:53:48;;;;;;;4.97;2.63;;;23.70;99.90;;;;;;5033081;28;20463;-71
2021/08/15 07:56:14;;;;;;;5.10;2.53;;;24.80;99.90;;;;;;5033578;28;20881;-71
2021/08/15 07:58:39;;;;;;;2.30;2.10;;;25.70;99.90;;;;;;5032830;28;20204;-71
2021/08/15 08:01:05;;;;;;;2.80;2.30;;;26.30;99.90;;;;;;5033618;28;20168;-72
2021/08/15 08:03:31;;;;;;;4.30;2.03;;;27.10;99.90;;;;;;5031713;28;20595;-72
2021/08/15 08:05:56;;;;;;;3.43;2.00;;;27.90;96.70;;;;;;5033188;28;20161;-72
2021/08/15 08:08:22;;;;;;;4.13;2.00;;;28.60;95.60;;;;;;5033227;28;20157;-72
2021/08/15 08:10:49;;;;;;;2.00;1.80;;;29.10;94.50;;;;;;5033174;28;20168;-72
2021/08/15 08:13:15;;;;;;;2.43;2.23;;;29.60;92.50;;;;;;5033300;28;20665;-72
2021/08/15 08:15:41;;;;;;;3.90;2.47;;;30.10;91.20;;;;;;5033416;28;20399;-73
2021/08/15 08:18:07;;;;;;;3.50;2.40;;;30.60;89.60;;;;;;5032884;28;20407;-73
2021/08/15 08:20:35;;;;;;;4.33;2.30;;;31.00;85.70;;;;;;5031247;28;20177;-73
2021/08/15 08:23:04;;;;;;;2.97;1.33;;;31.40;84.70;;;;;;5021606;28;20404;-73
2021/08/15 08:25:29;;;;;;;3.10;2.10;;;31.70;79.80;;;;;;5013863;28;20393;-73
2021/08/15 08:27:55;;;;;;;1.60;1.50;;;32.00;77.90;;;;;;5013492;28;20385;-73
2021/08/15 08:30:20;;;;;;;6.30;2.20;;;32.60;75.70;;;;;;5013223;28;20612;-71
2021/08/15 08:32:46;;;;;;;2.03;1.83;;;33.30;72.20;;;;;;5012806;28;20169;-71
2021/08/15 08:35:12;;;;;;;2.27;1.60;;;33.90;68.40;;;;;;5012975;28;20173;-70
2021/08/15 08:37:37;;;;;;;3.10;2.23;;;34.40;65.70;;;;;;5014119;28;20177;-70
2021/08/15 08:40:04;;;;;;;6.83;2.60;;;34.90;63.50;;;;;;5013585;28;20893;-70
2021/08/15 08:42:31;;;;;;;3.33;2.57;;;34.90;59.30;;;;;;5013166;28;20158;-71
2021/08/15 08:45:02;;;;;;;5.10;2.30;;;34.40;59.00;;;;;;5013156;28;20463;-71
2021/08/15 08:47:29;;;;;;;2.90;2.03;;;33.60;61.90;;;;;;5012701;28;20417;-71
2021/08/15 08:49:55;;;;;;;3.17;2.30;;;32.80;65.70;;;;;;5012841;28;20427;-71
2021/08/15 08:52:25;;;;;;;2.70;2.07;;;31.80;63.90;;;;;;5014689;28;20911;-70
2021/08/15 08:54:51;;;;;;;6.10;3.00;;;31.20;69.20;;;;;;5030913;28;20532;-70
2021/08/15 08:57:17;;;;;;;4.80;1.80;;;30.70;73.60;;;;;;5032817;28;20753;-70
2021/08/15 08:59:42;;;;;;;2.90;1.83;;;30.20;74.30;;;;;;5032340;28;20427;-70
2021/08/15 09:02:08;;;;;;;3.63;2.20;;;29.80;73.10;;;;;;5032699;28;20161;-70
2021/08/15 09:04:34;;;;;;;3.40;2.60;;;29.40;77.40;;;;;;5032375;28;20157;-72
2021/08/15 09:07:17;;;;;;;2.90;1.90;;;29.10;76.90;;;;;;5032383;28;20149;-73
2021/08/15 09:09:53;;;;;;;2.87;2.20;;;28.70;75.60;;;;;;5034275;28;20160;-73
2021/08/15 09:12:20;;;;;;;3.30;2.43;;;28.40;77.40;;;;;;5035018;28;20407;-73
2021/08/15 09:14:46;;;;;;;5.50;2.70;;;28.20;81.10;;;;;;5036333;28;20801;-73
2021/08/15 09:17:11;;;;;;;3.83;2.33;;;28.10;79.20;;;;;;5036622;28;20390;-73
2021/08/15 09:22:27;;;;;;;2.33;1.57;;;27.90;82.20;;;;;;5069589;28;20524;-76
2021/08/15 09:24:58;;;;;;;2.43;1.97;;;27.70;80.90;;;;;;5070009;28;20386;-75
2021/08/15 09:35:30;;;;;;;3.33;2.17;;;27.90;82.70;;;;;;5070047;28;20629;-72
2021/08/15 09:38:00;;;;;;;2.13;1.80;;;28.00;81.90;;;;;;5069986;28;20391;-72
2021/08/15 09:40:32;;;;;;;2.03;1.73;;;28.10;82.40;;;;;;5070012;28;20378;-72
2021/08/15 09:42:59;;;;;;;2.00;1.43;;;28.20;87.40;;;;;;5069612;28;20382;-72
2021/08/15 09:45:37;;;;;;;2.70;1.60;;;28.10;81.00;;;;;;5062179;28;20402;-72
2021/08/15 09:51:18;;;;;;;2.47;1.90;;;27.90;86.20;;;;;;5090806;27;20939;-72
2021/08/15 09:56:32;;;;;;;3.50;1.70;;;27.90;84.60;;;;;;5131128;27;20525;-73
2021/08/15 09:59:16;;;;;;;2.80;1.80;;;27.90;81.60;;;;;;5130728;28;20502;-73
2021/08/15 10:01:43;;;;;;;3.03;1.80;;;28.10;86.30;;;;;;5127470;27;20515;-73
2021/08/15 10:04:10;;;;;;;3.47;2.63;;;28.50;80.40;;;;;;5130393;28;20407;-73
2021/08/15 10:06:36;;;;;;;3.03;1.87;;;28.90;80.10;;;;;;5131293;27;20484;-73
2021/08/15 10:09:04;;;;;;;4.87;4.20;;;29.20;83.20;;;;;;5130829;28;20750;-73
2021/08/15 10:11:31;;;;;;;5.83;3.13;;;29.40;79.60;;;;;;5130388;28;20395;-73
2021/08/15 10:14:01;;;;;;;3.43;1.80;;;29.40;81.10;;;;;;5130880;27;20391;-73
2021/08/15 10:16:30;;;;;;;3.20;1.80;;;29.50;77.60;;;;;;5130570;27;20880;-73
2021/08/15 10:18:59;;;;;;;2.70;1.50;;;29.60;77.40;;;;;;5128940;28;20820;-73
2021/08/15 10:21:26;;;;;;;2.93;1.90;;;29.80;80.40;;;;;;5130555;27;20384;-73
2021/08/15 10:24:05;;;;;;;2.70;1.70;;;29.80;75.30;;;;;;5111753;28;20471;-73
2021/08/15 10:40:05;;;;;;;3.07;1.57;;;29.50;77.50;;;;;;5069915;28;20516;-72
2021/08/15 10:45:26;;;;;;;5.27;2.13;;;29.20;77.90;;;;;;5069743;28;20524;-73
2021/08/15 10:50:57;;;;;;;3.63;2.10;;;29.00;82.30;;;;;;5069918;28;20865;-72
2021/08/15 10:56:09;;;;;;;2.70;1.77;;;28.90;85.10;;;;;;5110364;27;20498;-72
2021/08/15 11:01:16;;;;;;;2.83;1.50;;;28.60;80.60;;;;;;5069897;28;20517;-72
2021/08/15 11:09:09;;;;;;;3.70;2.60;;;28.40;79.30;;;;;;5069867;28;20626;-72
2021/08/15 11:11:56;;;;;;;3.13;2.40;;;28.30;81.20;;;;;;5051662;28;20399;-72
2021/08/15 11:17:16;;;;;;;3.33;2.17;;;28.40;83.50;;;;;;5110461;27;20505;-72
2021/08/15 11:19:42;;;;;;;2.90;2.47;;;28.40;81.50;;;;;;5110638;28;20445;-72
2021/08/15 11:22:26;;;;;;;3.00;2.10;;;28.40;81.00;;;;;;5110302;28;20395;-73
2021/08/15 11:24:59;;;;;;;4.07;2.20;;;28.40;82.20;;;;;;5110293;28;20760;-72
2021/08/15 11:27:32;;;;;;;3.53;2.27;;;28.30;81.30;;;;;;5101337;28;20409;-72
2021/08/15 11:30:03;;;;;;;2.83;2.20;;;28.30;82.20;;;;;;5089887;28;20382;-72
2021/08/15 11:32:31;;;;;;;2.90;2.70;;;28.30;81.90;;;;;;5089581;28;20398;-72
2021/08/15 11:35:00;;;;;;;3.23;2.60;;;28.20;84.10;;;;;;5089961;28;20867;-72
2021/08/15 11:37:28;;;;;;;3.03;2.73;;;28.20;81.40;;;;;;5089750;28;20393;-72
2021/08/15 11:39:54;;;;;;;3.43;2.27;;;28.10;82.20;;;;;;5089716;28;20428;-72
2021/08/15 11:42:24;;;;;;;3.53;2.60;;;28.10;82.20;;;;;;5089543;28;20870;-72
2021/08/15 11:47:30;;;;;;;3.33;2.80;;;28.10;84.00;;;;;;5069897;28;20520;-72
2021/08/15 11:49:58;;;;;;;3.60;2.10;;;28.10;82.60;;;;;;5070147;28;20448;-73
2021/08/15 11:52:26;;;;;;;4.43;2.70;;;28.10;83.00;;;;;;5069731;28;20414;-73
2021/08/15 11:54:53;;;;;;;3.00;2.03;;;28.10;82.80;;;;;;5069569;28;20393;-73
2021/08/15 11:57:20;;;;;;;4.40;2.73;;;28.00;84.40;;;;;;5069732;28;20946;-73
2021/08/15 11:59:47;;;;;;;3.73;2.23;;;27.90;83.20;;;;;;5069855;28;20468;-73
2021/08/15 12:02:15;;;;;;;4.43;2.20;;;27.90;83.60;;;;;;5054226;28;20433;-73
2021/08/15 12:04:43;;;;;;;3.83;2.30;;;27.90;84.60;;;;;;5049701;28;20387;-73
2021/08/15 12:07:08;;;;;;;2.73;2.13;;;27.80;86.30;;;;;;5049536;28;20504;-73
2021/08/15 12:09:34;;;;;;;3.73;3.43;;;27.80;86.20;;;;;;5049406;28;20395;-73
2021/08/15 12:12:04;;;;;;;8.50;2.20;;;27.80;85.60;;;;;;5049371;28;20161;-73
2021/08/15 12:14:34;;;;;;;2.20;1.60;;;27.80;86.00;;;;;;5049383;28;20145;-73
2021/08/15 12:17:00;;;;;;;3.03;2.73;;;27.80;82.00;;;;;;5049375;28;20434;-73
2021/08/15 12:19:28;;;;;;;3.23;2.80;;;27.80;85.00;;;;;;5050474;28;20410;-73
2021/08/15 12:21:55;;;;;;;2.33;2.13;;;27.90;84.40;;;;;;5049338;28;20247;-73
2021/08/15 12:27:02;;;;;;;4.43;2.50;;;27.80;77.70;;;;;;5069938;28;20650;-73
2021/08/15 12:29:31;;;;;;;3.23;2.20;;;27.60;80.70;;;;;;5069933;28;20524;-73
2021/08/15 12:37:19;;;;;;;4.83;2.77;;;27.00;83.30;;;;;;5110493;27;20498;-72
2021/08/15 12:39:47;;;;;;;4.57;2.37;;;26.80;82.60;;;;;;5110565;28;20392;-73
2021/08/15 12:42:16;;;;;;;3.33;2.70;;;26.60;85.00;;;;;;5110088;28;20400;-73
2021/08/15 12:44:59;;;;;;;2.53;2.33;;;26.40;85.50;;;;;;5097875;28;20445;-72
2021/08/15 12:47:29;;;;;;;2.47;2.27;;;26.30;86.90;;;;;;5090176;28;20894;-73
2021/08/15 12:50:06;;;;;;;2.87;2.20;;;26.20;86.00;;;;;;5089873;28;20772;-73
2021/08/15 12:52:53;;;;;;;4.20;3.30;;;26.10;88.30;;;;;;5090964;28;20404;-72
2021/08/15 13:00:39;;;;;;;3.20;2.30;;;26.00;87.70;;;;;;5131121;27;20557;-73
2021/08/15 13:03:07;;;;;;;4.43;2.40;;;25.90;88.40;;;;;;5130996;28;20395;-73
2021/08/15 13:05:35;;;;;;;3.50;3.20;;;25.90;89.90;;;;;;5130879;28;20419;-73
2021/08/15 13:08:02;;;;;;;3.37;3.00;;;25.90;88.30;;;;;;5130799;28;20380;-73
2021/08/15 13:10:29;;;;;;;5.43;3.17;;;25.90;87.40;;;;;;5130723;28;20998;-73
2021/08/15 13:12:55;;;;;;;2.27;2.07;;;25.80;89.10;;;;;;5130772;28;20395;-73
2021/08/15 13:15:22;;;;;;;2.30;2.10;;;25.80;91.00;;;;;;5130934;28;20392;-73
2021/08/15 13:17:48;;;;;;;2.40;2.17;;;25.70;89.60;;;;;;5130556;28;20430;-73
2021/08/15 13:20:18;;;;;;;2.37;2.17;;;25.70;90.40;;;;;;5130849;28;20447;-73
2021/08/15 13:22:44;;;;;;;4.10;2.77;;;25.60;90.80;;;;;;5121221;28;20897;-73
2021/08/15 13:25:11;;;;;;;4.10;2.27;;;25.60;90.20;;;;;;5109960;28;20400;-73
2021/08/15 13:27:37;;;;;;;2.23;1.93;;;25.50;90.60;;;;;;5129813;28;20442;-73
2021/08/15 13:30:04;;;;;;;2.33;2.10;;;25.50;90.50;;;;;;5130854;28;20434;-73
2021/08/15 13:32:30;;;;;;;2.43;2.23;;;25.40;90.50;;;;;;5130407;28;20391;-73
2021/08/15 13:34:57;;;;;;;2.70;2.40;;;25.40;91.40;;;;;;5130489;28;20768;-73
2021/08/15 13:37:24;;;;;;;4.10;2.80;;;25.40;89.60;;;;;;5130452;28;20170;-73
2021/08/15 13:39:55;;;;;;;3.33;1.93;;;25.40;91.00;;;;;;5130099;28;20966;-73